地図

経路データ

SID SEASON NUMBER BASIN SUBBASIN NAME ISO_TIME NATURE LAT LON WMO_WIND WMO_PRES WMO_AGENCY TRACK_TYPE DIST2LAND LANDFALL IFLAG USA_AGENCY USA_ATCF_ID USA_LAT USA_LON USA_RECORD USA_STATUS USA_WIND USA_PRES USA_SSHS USA_R34_NE USA_R34_SE USA_R34_SW USA_R34_NW USA_R50_NE USA_R50_SE USA_R50_SW USA_R50_NW USA_R64_NE USA_R64_SE USA_R64_SW USA_R64_NW USA_POCI USA_ROCI USA_RMW USA_EYE TOKYO_LAT TOKYO_LON TOKYO_GRADE TOKYO_WIND TOKYO_PRES TOKYO_R50_DIR TOKYO_R50_LONG TOKYO_R50_SHORT TOKYO_R30_DIR TOKYO_R30_LONG TOKYO_R30_SHORT TOKYO_LAND CMA_LAT CMA_LON CMA_CAT CMA_WIND CMA_PRES HKO_LAT HKO_LON HKO_CAT HKO_WIND HKO_PRES NEWDELHI_LAT NEWDELHI_LON NEWDELHI_GRADE NEWDELHI_WIND NEWDELHI_PRES NEWDELHI_CI NEWDELHI_DP NEWDELHI_POCI REUNION_LAT REUNION_LON REUNION_TYPE REUNION_WIND REUNION_PRES REUNION_TNUM REUNION_CI REUNION_RMW REUNION_R34_NE REUNION_R34_SE REUNION_R34_SW REUNION_R34_NW REUNION_R50_NE REUNION_R50_SE REUNION_R50_SW REUNION_R50_NW REUNION_R64_NE REUNION_R64_SE REUNION_R64_SW REUNION_R64_NW BOM_LAT BOM_LON BOM_TYPE BOM_WIND BOM_PRES BOM_TNUM BOM_CI BOM_RMW BOM_R34_NE BOM_R34_SE BOM_R34_SW BOM_R34_NW BOM_R50_NE BOM_R50_SE BOM_R50_SW BOM_R50_NW BOM_R64_NE BOM_R64_SE BOM_R64_SW BOM_R64_NW BOM_ROCI BOM_POCI BOM_EYE BOM_POS_METHOD BOM_PRES_METHOD NADI_LAT NADI_LON NADI_CAT NADI_WIND NADI_PRES WELLINGTON_LAT WELLINGTON_LON WELLINGTON_WIND WELLINGTON_PRES DS824_LAT DS824_LON DS824_STAGE DS824_WIND DS824_PRES TD9636_LAT TD9636_LON TD9636_STAGE TD9636_WIND TD9636_PRES TD9635_LAT TD9635_LON TD9635_WIND TD9635_PRES TD9635_ROCI NEUMANN_LAT NEUMANN_LON NEUMANN_CLASS NEUMANN_WIND NEUMANN_PRES MLC_LAT MLC_LON MLC_CLASS MLC_WIND MLC_PRES USA_GUST BOM_GUST BOM_GUST_PER REUNION_GUST REUNION_GUST_PER USA_SEAHGT USA_SEARAD_NE USA_SEARAD_SE USA_SEARAD_SW USA_SEARAD_NW STORM_SPEED STORM_DIR
1936040S13064 1936 5 SI MM NOT_NAMED 1936-02-08 18:00:00 NR -12.5000 64.3000 main 1104 1058 __________O___ -1 -12.5000 64.3000 2 15 161
1936040S13064 1936 5 SI MM NOT_NAMED 1936-02-08 21:00:00 NR -13.2049 64.5500 main 1065 1032 __________P___ -1 -13.2049 64.5500 2 15 161
1936040S13064 1936 5 SI MM NOT_NAMED 1936-02-09 00:00:00 NR -13.8779 64.7907 main 1025 996 __________P___ -1 -13.8779 64.7907 2 14 161
1936040S13064 1936 5 SI MM NOT_NAMED 1936-02-09 03:00:00 NR -14.4868 65.0111 main 996 978 __________P___ -1 -14.4868 65.0111 2 12 161
1936040S13064 1936 5 SI MM NOT_NAMED 1936-02-09 06:00:00 TS -15.0000 65.2000 main 978 967 _________OO___ -1 -15.0000 65.2000 TC 35 -15.0000 65.2000 2 9 159
1936040S13064 1936 5 SI MM NOT_NAMED 1936-02-09 09:00:00 TS -15.3634 65.3544 main 970 957 _________PP___ -1 -15.2925 65.3624 TC 35 -15.3988 65.3505 2 7 158
1936040S13064 1936 5 SI MM NOT_NAMED 1936-02-09 12:00:00 TS -15.6670 65.4849 main 960 952 _________OP___ -1 -15.6000 65.5000 TC 35 -15.7172 65.4735 2 7 159
1936040S13064 1936 5 SI MM NOT_NAMED 1936-02-09 15:00:00 TS -15.9685 65.5924 main 952 945 _________PP___ -1 -15.9350 65.6001 TC 35 -16.0020 65.5848 2 7 162
1936040S13064 1936 5 SI MM NOT_NAMED 1936-02-09 18:00:00 TS -16.3000 65.7000 main 945 934 _________OO___ -1 -16.3000 65.7000 TC 35 -16.3000 65.7000 2 8 162
1936040S13064 1936 5 SI MM NOT_NAMED 1936-02-09 21:00:00 TS -16.6956 65.8426 main 934 929 _________PP___ -1 -16.6925 65.8425 TC 35 -16.6987 65.8427 2 9 161
1936040S13064 1936 5 SI MM NOT_NAMED 1936-02-10 00:00:00 TS -17.1075 65.9962 main 934 927 _________OP___ -1 -17.1000 66.0000 TC 35 -17.1150 65.9924 2 9 161
1936040S13064 1936 5 SI MM NOT_NAMED 1936-02-10 03:00:00 TS -17.5194 66.1479 main 927 925 _________PP___ -1 -17.5150 66.1500 TC 35 -17.5237 66.1459 2 8 160
1936040S13064 1936 5 SI MM NOT_NAMED 1936-02-10 06:00:00 TS -17.9000 66.3000 main 932 929 _________OO___ -1 -17.9000 66.3000 TC 35 -17.9000 66.3000 2 8 158
1936040S13064 1936 5 SI MM NOT_NAMED 1936-02-10 09:00:00 TS -18.2208 66.4542 main 942 937 _________PP___ -1 -18.2225 66.4501 TC 35 -18.2190 66.4583 2 7 154
1936040S13064 1936 5 SI MM NOT_NAMED 1936-02-10 12:00:00 TS -18.5012 66.6076 main 944 941 _________OP___ -1 -18.5000 66.6000 TC 35 -18.5025 66.6152 2 6 152
1936040S13064 1936 5 SI MM NOT_NAMED 1936-02-10 15:00:00 TS -18.7586 66.7610 main 957 955 _________PP___ -1 -18.7575 66.7575 TC 35 -18.7597 66.7645 2 6 151
1936040S13064 1936 5 SI MM NOT_NAMED 1936-02-10 18:00:00 TS -19.0000 66.9000 main 963 961 _________OO___ -1 -19.0000 66.9000 TC 35 -19.0000 66.9000 2 5 154
1936040S13064 1936 5 SI MM NOT_NAMED 1936-02-10 21:00:00 TS -19.2402 67.0051 main 970 968 _________PP___ -1 -19.2575 67.0076 TC 35 -19.2230 67.0027 2 5 158
1936040S13064 1936 5 SI MM NOT_NAMED 1936-02-11 00:00:00 TS -19.4674 67.0966 main 976 975 _________OP___ -1 -19.5000 67.1000 TC 35 -19.4348 67.0932 2 5 158
1936040S13064 1936 5 SI MM NOT_NAMED 1936-02-11 03:00:00 TS -19.6696 67.1898 main 984 983 _________PP___ -1 -19.6850 67.1926 TC 35 -19.6542 67.1871 2 5 156
1936040S13064 1936 5 SI MM NOT_NAMED 1936-02-11 06:00:00 TS -19.9000 67.3000 main 992 992 _________OO___ -1 -19.9000 67.3000 TC 35 -19.9000 67.3000 2 6 156
1936040S13064 1936 5 SI MM NOT_NAMED 1936-02-11 09:00:00 TS -20.2116 67.4442 main 1001 1001 _________PP___ -1 -20.2350 67.4350 TC 35 -20.1882 67.4534 2 7 156
1936040S13064 1936 5 SI MM NOT_NAMED 1936-02-11 12:00:00 TS -20.5525 67.6138 main 1021 1021 _________OP___ -1 -20.6000 67.6000 TC 35 -20.5051 67.6275 2 7 153
1936040S13064 1936 5 SI MM NOT_NAMED 1936-02-11 15:00:00 TS -20.8722 67.8027 main 1042 1042 _________PP___ -1 -20.9000 67.7926 TC 35 -20.8444 67.8129 2 7 151
1936040S13064 1936 5 SI MM NOT_NAMED 1936-02-11 18:00:00 TS -21.2000 68.0000 main 1065 1065 _________OO___ -1 -21.2000 68.0000 TC 35 -21.2000 68.0000 2 8 152
1936040S13064 1936 5 SI MM NOT_NAMED 1936-02-11 21:00:00 TS -21.5518 68.1913 main 1089 1089 _________PP___ -1 -21.5350 68.2075 TC 35 -21.5687 68.1751 2 8 154
1936040S13064 1936 5 SI MM NOT_NAMED 1936-02-12 00:00:00 TS -21.9250 68.3751 main 1113 1113 _________OP___ -1 -21.9000 68.4000 TC 35 -21.9499 68.3501 2 8 157
1936040S13064 1936 5 SI MM NOT_NAMED 1936-02-12 03:00:00 TS -22.3156 68.5414 main 1130 1130 _________PP___ -1 -22.3000 68.5576 TC 35 -22.3312 68.5251 2 8 159
1936040S13064 1936 5 SI MM NOT_NAMED 1936-02-12 06:00:00 TS -22.7000 68.7000 main 1158 1158 _________OO___ -1 -22.7000 68.7000 TC 35 -22.7000 68.7000 2 8 159
1936040S13064 1936 5 SI MM NOT_NAMED 1936-02-12 09:00:00 TS -23.0521 68.8550 main 1188 1188 _________PP___ -1 -23.0650 68.8426 TC 35 -23.0392 68.8673 2 7 157
1936040S13064 1936 5 SI MM NOT_NAMED 1936-02-12 12:00:00 TS -23.3824 69.0178 main 1205 1205 _________OP___ -1 -23.4000 69.0000 TC 35 -23.3648 69.0357 2 7 154
1936040S13064 1936 5 SI MM NOT_NAMED 1936-02-12 15:00:00 TS -23.6915 69.2019 main 1234 1234 _________PP___ -1 -23.7000 69.1926 TC 35 -23.6830 69.2111 2 7 150
1936040S13064 1936 5 SI MM NOT_NAMED 1936-02-12 18:00:00 TS -24.0000 69.4000 main 1263 1263 _________OO___ -1 -24.0000 69.4000 TC 35 -24.0000 69.4000 2 7 151
1936040S13064 1936 5 SI MM NOT_NAMED 1936-02-12 21:00:00 TS -24.3170 69.5862 main 1292 1292 _________PP___ -1 -24.3499 69.5926 TC 35 -24.2840 69.5798 2 7 151
1936040S13064 1936 5 SI MM NOT_NAMED 1936-02-13 00:00:00 TS -24.6372 69.7888 main 1322 1322 _________OP___ -1 -24.7000 69.8000 TC 35 -24.5744 69.7777 2 7 148
1936040S13064 1936 5 SI MM NOT_NAMED 1936-02-13 03:00:00 TS -24.9325 70.0162 main 1352 1352 _________PP___ -1 -24.9624 70.0207 TC 35 -24.9026 70.0116 2 8 145
1936040S13064 1936 5 SI MM NOT_NAMED 1936-02-13 06:00:00 TS -25.3000 70.3000 main 1396 1396 _________OO___ -1 -25.3000 70.3000 TC 35 -25.3000 70.3000 2 11 147
1936040S13064 1936 5 SI MM NOT_NAMED 1936-02-13 09:00:00 TS -25.8349 70.6604 main 1453 1453 _________PP___ -1 -25.8625 70.6698 TC 35 -25.8072 70.6509 2 13 148
1936040S13064 1936 5 SI MM NOT_NAMED 1936-02-13 12:00:00 TS -26.4412 71.0799 main 1515 1515 _________OP___ -1 -26.5000 71.1000 TC 35 -26.3824 71.0599 2 14 147
1936040S13064 1936 5 SI MM NOT_NAMED 1936-02-13 15:00:00 TS -27.0244 71.5247 main 1579 1579 _________PP___ -1 -27.0573 71.5355 TC 35 -26.9914 71.5140 2 14 145
1936040S13064 1936 5 SI MM NOT_NAMED 1936-02-13 18:00:00 TS -27.6000 72.0000 main 1652 1652 _________OO___ -1 -27.6000 72.0000 TC 35 -27.6000 72.0000 2 14 143
1936040S13064 1936 5 SI MM NOT_NAMED 1936-02-13 21:00:00 TS -28.1656 72.4957 main 1725 1725 _________PP___ -1 -28.1498 72.4855 TC 35 -28.1813 72.5058 2 14 141
1936040S13064 1936 5 SI MM NOT_NAMED 1936-02-14 00:00:00 TS -28.7182 73.0132 main 1794 1794 _________OP___ -1 -28.7000 73.0000 TC 35 -28.7364 73.0265 2 14 140
1936040S13064 1936 5 SI MM NOT_NAMED 1936-02-14 03:00:00 TS -29.2619 73.5501 main 1877 1877 _________PP___ -1 -29.2505 73.5413 TC 35 -29.2733 73.5589 2 14 139
1936040S13064 1936 5 SI MM NOT_NAMED 1936-02-14 06:00:00 TS -29.8000 74.1000 main 1946 _________OO___ -1 -29.8000 74.1000 TC 35 -29.8000 74.1000 2 14 138

IBTrACS Databaseについて

本データベースは、米国NOAAが公開する1842年以降の世界の熱帯低気圧のベストトラックデータアーカイブInternational Best Track Archive for Climate Stewardship (IBTrACS)を、ウェブで閲覧しやすい形式に変換したものです。

最終更新日:2021-12-06